Time;durP1;ratioP1;P1;durP2;ratioP2;P2;SDS_P1;SDS_P2;PMS_P1;PMS_P2;Temp;Humidity;BMP_temperature;BMP_pressure;BME280_temperature;BME280_humidity;BME280_pressure;Samples;Min_cycle;Max_cycle;Signal;HPM_P1;HPM_P2
2022/07/25 00:01:15;;;;;;;0.00;0.00;;;26.50;62.70;;;;;;4192610;28;20053;-63
2022/07/25 00:03:37;;;;;;;0.00;0.00;;;26.50;62.70;;;;;;4191615;28;20053;-62
2022/07/25 00:05:59;;;;;;;3.83;1.30;;;26.50;62.70;;;;;;4192386;28;20064;-62
2022/07/25 00:08:22;;;;;;;0.15;0.15;;;26.50;62.80;;;;;;4193141;28;20059;-62
2022/07/25 00:10:44;;;;;;;0.00;0.00;;;26.40;62.80;;;;;;4190897;28;20072;-63
2022/07/25 00:13:08;;;;;;;0.00;0.00;;;26.50;63.00;;;;;;4191750;28;20041;-63
2022/07/25 00:15:30;;;;;;;0.25;0.25;;;26.50;63.00;;;;;;4192482;28;20044;-63
2022/07/25 00:17:52;;;;;;;0.10;0.10;;;26.50;63.00;;;;;;4192850;28;20106;-62
2022/07/25 00:20:14;;;;;;;0.00;0.00;;;26.50;63.00;;;;;;4192571;28;20429;-63
2022/07/25 00:22:36;;;;;;;0.00;0.00;;;26.50;62.90;;;;;;4175858;28;20526;-63
2022/07/25 00:24:59;;;;;;;0.25;0.25;;;26.50;63.00;;;;;;4174346;28;20604;-63
2022/07/25 00:27:21;;;;;;;0.00;0.00;;;26.50;63.00;;;;;;4174619;28;20052;-63
2022/07/25 00:29:44;;;;;;;0.00;0.00;;;26.50;63.00;;;;;;4159412;28;20603;-64
2022/07/25 00:32:06;;;;;;;0.00;0.00;;;26.50;63.10;;;;;;4187593;28;20071;-63
2022/07/25 00:34:28;;;;;;;0.00;0.00;;;26.50;63.10;;;;;;4190716;28;20101;-63
2022/07/25 00:36:51;;;;;;;0.00;0.00;;;26.50;63.20;;;;;;4181642;28;20044;-63
2022/07/25 00:39:13;;;;;;;7.03;0.90;;;26.50;63.20;;;;;;4174373;28;20476;-63
2022/07/25 00:41:36;;;;;;;0.00;0.00;;;26.40;63.10;;;;;;4183510;28;20049;-62
2022/07/25 00:43:59;;;;;;;0.00;0.00;;;26.50;63.20;;;;;;4175216;28;20531;-62
2022/07/25 00:46:22;;;;;;;0.00;0.00;;;26.50;64.10;;;;;;4173992;28;20412;-62
2022/07/25 00:48:45;;;;;;;0.00;0.00;;;26.40;63.20;;;;;;4173928;28;20551;-63
2022/07/25 00:51:07;;;;;;;0.25;0.25;;;26.40;63.10;;;;;;4190367;28;20134;-61
2022/07/25 00:53:29;;;;;;;0.00;0.00;;;26.40;63.10;;;;;;4191727;28;20186;-62
2022/07/25 00:55:51;;;;;;;0.90;0.88;;;26.40;63.20;;;;;;4190772;28;20045;-62
2022/07/25 00:58:13;;;;;;;0.00;0.00;;;26.40;63.20;;;;;;4191309;28;20055;-63
2022/07/25 01:00:35;;;;;;;0.10;0.10;;;26.40;63.30;;;;;;4192117;28;20519;-63
2022/07/25 01:02:59;;;;;;;0.00;0.00;;;26.40;63.20;;;;;;4191711;28;20524;-63
2022/07/25 01:05:21;;;;;;;0.10;0.10;;;26.40;63.20;;;;;;4191955;28;20545;-63
2022/07/25 01:07:43;;;;;;;0.00;0.00;;;26.40;63.20;;;;;;4192127;28;20126;-63
2022/07/25 01:10:07;;;;;;;0.00;0.00;;;26.40;63.30;;;;;;4191574;28;20070;-63
2022/07/25 01:12:29;;;;;;;0.05;0.05;;;26.40;63.20;;;;;;4192325;28;20487;-63
2022/07/25 01:14:51;;;;;;;0.10;0.10;;;26.40;63.40;;;;;;4192051;28;20706;-63
2022/07/25 01:17:13;;;;;;;0.00;0.00;;;26.40;63.30;;;;;;4192071;28;20059;-65
2022/07/25 01:19:37;;;;;;;0.10;0.10;;;26.40;63.30;;;;;;4191960;28;20047;-66
2022/07/25 01:22:01;;;;;;;0.00;0.00;;;26.40;63.30;;;;;;4191110;28;20050;-63
2022/07/25 01:24:22;;;;;;;0.20;0.20;;;26.40;63.40;;;;;;4191661;28;20049;-63
2022/07/25 01:26:44;;;;;;;0.00;0.00;;;26.40;63.40;;;;;;4175330;28;20057;-63
2022/07/25 01:29:06;;;;;;;0.00;0.00;;;26.40;63.40;;;;;;4175066;28;20094;-63
2022/07/25 01:31:28;;;;;;;0.03;0.03;;;26.40;63.40;;;;;;4173901;28;20556;-63
2022/07/25 01:33:51;;;;;;;1.20;0.85;;;26.40;63.50;;;;;;4175038;28;20041;-65
2022/07/25 01:36:13;;;;;;;0.00;0.00;;;26.40;63.40;;;;;;4179411;28;20153;-62
2022/07/25 01:38:37;;;;;;;0.13;0.13;;;26.40;63.40;;;;;;4174736;28;20045;-64
2022/07/25 01:40:59;;;;;;;0.00;0.00;;;26.40;63.50;;;;;;4190416;28;20086;-64
2022/07/25 01:43:22;;;;;;;0.00;0.00;;;26.30;63.30;;;;;;4171918;28;20122;-64
2022/07/25 01:45:44;;;;;;;0.10;0.10;;;26.30;63.40;;;;;;4171918;28;20072;-62
2022/07/25 01:48:06;;;;;;;0.32;0.32;;;26.30;63.40;;;;;;4173788;28;20080;-63
2022/07/25 01:50:29;;;;;;;0.00;0.00;;;26.30;63.40;;;;;;4173245;28;20427;-64
2022/07/25 01:52:51;;;;;;;0.00;0.00;;;26.30;63.50;;;;;;4187990;28;20048;-64
2022/07/25 01:55:14;;;;;;;0.10;0.10;;;26.30;63.50;;;;;;4190310;28;20049;-64
2022/07/25 01:57:36;;;;;;;0.20;0.20;;;26.30;63.50;;;;;;4191465;28;20123;-65
2022/07/25 01:59:59;;;;;;;0.00;0.00;;;26.30;63.50;;;;;;4189962;28;20048;-64
2022/07/25 02:02:21;;;;;;;0.22;0.22;;;26.30;63.50;;;;;;4190510;28;20084;-65
2022/07/25 02:04:43;;;;;;;0.00;0.00;;;26.30;63.50;;;;;;4175009;28;20049;-64
2022/07/25 02:07:05;;;;;;;0.15;0.15;;;26.30;63.60;;;;;;4175083;28;20391;-65
2022/07/25 02:09:27;;;;;;;1.45;0.90;;;26.30;63.60;;;;;;4174750;28;20530;-64
2022/07/25 02:11:50;;;;;;;0.00;0.00;;;26.30;63.60;;;;;;4173504;28;20097;-64
2022/07/25 02:14:15;;;;;;;0.00;0.00;;;26.30;63.60;;;;;;4158411;28;20053;-64
2022/07/25 02:16:37;;;;;;;0.63;0.38;;;26.30;63.60;;;;;;4161091;28;20110;-64
2022/07/25 02:19:00;;;;;;;0.08;0.08;;;26.30;63.60;;;;;;4178031;28;20056;-64
2022/07/25 02:21:22;;;;;;;0.00;0.00;;;26.30;63.60;;;;;;4191740;28;20407;-64
2022/07/25 02:23:45;;;;;;;0.00;0.00;;;26.30;63.60;;;;;;4193090;28;20491;-66
2022/07/25 02:26:07;;;;;;;0.00;0.00;;;26.30;63.60;;;;;;4177761;28;20123;-63
2022/07/25 02:28:30;;;;;;;0.43;0.43;;;26.30;63.60;;;;;;4194337;28;20137;-64
2022/07/25 02:30:53;;;;;;;0.15;0.15;;;26.30;63.60;;;;;;4183753;28;20122;-64
2022/07/25 02:33:15;;;;;;;0.20;0.20;;;26.30;63.60;;;;;;4177903;28;20052;-64
2022/07/25 02:35:38;;;;;;;0.00;0.00;;;26.30;63.60;;;;;;4178251;28;20056;-65
2022/07/25 02:38:02;;;;;;;0.00;0.00;;;26.30;63.70;;;;;;4177922;28;20136;-64
2022/07/25 02:40:24;;;;;;;0.43;0.43;;;26.20;63.60;;;;;;4177215;28;20068;-64
2022/07/25 02:42:46;;;;;;;0.00;0.00;;;26.20;63.60;;;;;;4193861;28;20064;-64
2022/07/25 02:45:10;;;;;;;0.00;0.00;;;26.20;63.60;;;;;;4193643;28;20057;-64
2022/07/25 02:47:32;;;;;;;0.43;0.43;;;26.20;63.60;;;;;;4194209;28;20059;-64
2022/07/25 02:49:54;;;;;;;0.10;0.10;;;26.20;63.60;;;;;;4190490;28;20052;-65
2022/07/25 02:52:17;;;;;;;0.00;0.00;;;26.20;63.60;;;;;;4176863;28;20408;-64
2022/07/25 02:54:39;;;;;;;0.10;0.10;;;26.20;63.70;;;;;;4178255;28;20134;-65
2022/07/25 02:57:01;;;;;;;0.17;0.17;;;26.10;63.60;;;;;;4177320;28;20068;-63
2022/07/25 02:59:23;;;;;;;0.00;0.00;;;26.20;63.60;;;;;;4192270;28;20518;-65
2022/07/25 03:01:47;;;;;;;0.32;0.32;;;26.20;63.70;;;;;;4174442;28;20136;-64
2022/07/25 03:04:09;;;;;;;0.00;0.00;;;26.20;63.70;;;;;;4160681;28;20063;-64
2022/07/25 03:06:32;;;;;;;0.22;0.22;;;26.20;64.00;;;;;;4160511;28;20390;-64
2022/07/25 03:08:54;;;;;;;0.00;0.00;;;26.20;63.60;;;;;;4184278;28;20863;-64
2022/07/25 03:11:16;;;;;;;0.47;0.47;;;26.20;63.60;;;;;;4192969;28;20504;-64
2022/07/25 03:13:38;;;;;;;0.30;0.30;;;26.20;63.70;;;;;;4193522;28;20057;-63
2022/07/25 03:16:00;;;;;;;0.20;0.20;;;26.10;63.60;;;;;;4191945;28;20568;-64
2022/07/25 03:18:23;;;;;;;0.10;0.10;;;26.10;63.60;;;;;;4193282;28;20059;-63
2022/07/25 03:20:45;;;;;;;0.38;0.38;;;26.10;63.70;;;;;;4193454;28;20060;-64
2022/07/25 03:23:07;;;;;;;0.00;0.00;;;26.10;63.70;;;;;;4176698;28;20067;-64
2022/07/25 03:25:29;;;;;;;0.45;0.45;;;26.10;63.70;;;;;;4175081;28;20045;-65
2022/07/25 03:27:51;;;;;;;0.00;0.00;;;26.10;63.70;;;;;;4175825;28;20539;-64
2022/07/25 03:30:13;;;;;;;0.03;0.03;;;26.10;63.70;;;;;;4176522;28;20106;-64
2022/07/25 03:32:35;;;;;;;0.00;0.00;;;26.10;63.70;;;;;;4176950;28;20049;-64
2022/07/25 03:34:59;;;;;;;0.00;0.00;;;26.10;63.70;;;;;;4177532;28;20072;-65
2022/07/25 03:37:21;;;;;;;0.65;0.65;;;26.10;63.70;;;;;;4175123;28;20160;-64
2022/07/25 03:39:43;;;;;;;0.00;0.00;;;26.10;63.70;;;;;;4176709;28;20130;-64
2022/07/25 03:42:05;;;;;;;0.10;0.10;;;26.10;63.70;;;;;;4176679;28;20051;-64
2022/07/25 03:44:27;;;;;;;0.00;0.00;;;26.10;63.80;;;;;;4177630;28;20059;-63
2022/07/25 03:46:48;;;;;;;0.00;0.00;;;26.00;63.70;;;;;;4177971;28;20518;-64
2022/07/25 03:49:10;;;;;;;0.10;0.10;;;26.00;63.70;;;;;;4191832;28;20052;-65
2022/07/25 03:51:34;;;;;;;1.35;1.35;;;26.00;63.70;;;;;;4191676;28;20117;-65
2022/07/25 03:54:02;;;;;;;0.10;0.10;;;26.00;63.70;;;;;;4190812;28;20052;-64
2022/07/25 03:56:25;;;;;;;0.00;0.00;;;26.00;63.70;;;;;;4176056;28;20045;-65
2022/07/25 03:58:47;;;;;;;0.80;0.80;;;26.00;63.70;;;;;;4191410;28;20501;-65
2022/07/25 04:01:09;;;;;;;0.30;0.30;;;26.00;63.70;;;;;;4191532;28;20052;-64
2022/07/25 04:03:32;;;;;;;0.70;0.70;;;26.00;63.70;;;;;;4192542;28;20110;-64
2022/07/25 04:05:54;;;;;;;0.25;0.25;;;26.00;63.70;;;;;;4192727;28;20078;-64
2022/07/25 04:08:17;;;;;;;0.00;0.00;;;26.00;64.00;;;;;;4192693;28;20101;-64
2022/07/25 04:10:39;;;;;;;0.00;0.00;;;26.00;64.20;;;;;;4192339;28;20578;-64
2022/07/25 04:13:03;;;;;;;3.35;0.45;;;26.00;64.00;;;;;;4183308;28;20079;-64
2022/07/25 04:15:25;;;;;;;0.52;0.52;;;26.00;64.00;;;;;;4191150;28;20098;-65
2022/07/25 04:17:47;;;;;;;0.30;0.30;;;26.00;63.90;;;;;;4180649;28;20064;-64
2022/07/25 04:20:10;;;;;;;0.20;0.20;;;26.00;63.90;;;;;;4182206;28;20880;-65
2022/07/25 04:22:32;;;;;;;0.00;0.00;;;26.00;63.80;;;;;;4178949;28;20118;-64
2022/07/25 04:24:56;;;;;;;0.22;0.22;;;26.00;63.70;;;;;;4190005;28;20070;-65
2022/07/25 04:27:18;;;;;;;2.08;1.48;;;26.00;63.80;;;;;;4192572;28;20047;-65
2022/07/25 04:29:40;;;;;;;0.10;0.10;;;26.00;63.80;;;;;;4189409;28;20158;-65
2022/07/25 04:32:02;;;;;;;1.55;1.45;;;26.00;63.80;;;;;;4190646;28;20049;-65
2022/07/25 04:34:25;;;;;;;0.00;0.00;;;25.90;63.70;;;;;;4192095;28;20056;-64
2022/07/25 04:36:47;;;;;;;0.40;0.40;;;25.90;63.70;;;;;;4175088;28;20520;-64
2022/07/25 04:39:09;;;;;;;2.20;0.63;;;25.90;63.70;;;;;;4192356;28;20114;-65
2022/07/25 04:41:32;;;;;;;0.05;0.05;;;25.90;63.70;;;;;;4188407;28;20098;-64
2022/07/25 04:43:54;;;;;;;0.05;0.05;;;25.90;63.80;;;;;;4187506;28;20399;-65
2022/07/25 04:46:18;;;;;;;0.90;0.90;;;25.90;63.70;;;;;;4191803;28;20047;-64
2022/07/25 04:48:41;;;;;;;0.10;0.10;;;25.90;63.80;;;;;;4175458;28;20534;-65
2022/07/25 04:51:03;;;;;;;0.00;0.00;;;25.90;63.80;;;;;;4159450;28;20128;-66
2022/07/25 04:53:25;;;;;;;3.83;2.88;;;25.90;63.80;;;;;;4175496;28;20140;-65
2022/07/25 04:55:47;;;;;;;0.00;0.00;;;25.90;63.90;;;;;;4175921;28;20055;-66
2022/07/25 04:58:11;;;;;;;0.00;0.00;;;26.00;64.80;;;;;;4175023;28;20055;-65
2022/07/25 05:00:33;;;;;;;1.10;1.08;;;26.00;63.80;;;;;;4175489;28;20115;-65
2022/07/25 05:02:55;;;;;;;0.00;0.00;;;26.00;63.70;;;;;;4175711;28;20056;-65
2022/07/25 05:05:19;;;;;;;0.20;0.20;;;26.00;63.70;;;;;;4172778;28;20076;-65
2022/07/25 05:07:43;;;;;;;0.00;0.00;;;26.00;63.70;;;;;;4174114;28;20053;-65
2022/07/25 05:10:05;;;;;;;1.33;0.77;;;26.00;63.60;;;;;;4175081;28;20507;-65
2022/07/25 05:12:27;;;;;;;0.10;0.10;;;26.00;63.70;;;;;;4187277;28;20040;-65
2022/07/25 05:14:51;;;;;;;0.73;0.73;;;26.00;63.60;;;;;;4181230;28;20150;-65
2022/07/25 05:17:13;;;;;;;0.00;0.00;;;26.00;63.60;;;;;;4189704;28;20110;-64
2022/07/25 05:19:36;;;;;;;0.05;0.05;;;26.00;63.70;;;;;;4185371;28;20041;-65
2022/07/25 05:21:58;;;;;;;2.20;1.35;;;26.00;63.60;;;;;;4175548;28;20392;-64
2022/07/25 05:24:21;;;;;;;0.70;0.70;;;26.00;63.60;;;;;;4192230;28;21523;-64
2022/07/25 05:26:44;;;;;;;0.32;0.32;;;26.00;63.60;;;;;;4191206;28;20052;-65
2022/07/25 05:29:06;;;;;;;0.70;0.70;;;26.00;63.60;;;;;;4191521;28;20051;-65
2022/07/25 05:31:29;;;;;;;0.00;0.00;;;26.00;63.60;;;;;;4191861;28;20060;-65
2022/07/25 05:33:51;;;;;;;0.43;0.43;;;26.00;63.50;;;;;;4191832;28;20071;-65
2022/07/25 05:36:13;;;;;;;0.10;0.10;;;26.00;63.50;;;;;;4191254;28;20047;-65
2022/07/25 05:38:35;;;;;;;0.10;0.10;;;26.00;63.40;;;;;;4191559;28;20460;-65
2022/07/25 05:40:57;;;;;;;1.20;1.20;;;26.00;63.40;;;;;;4191431;28;20055;-65
2022/07/25 05:43:19;;;;;;;0.22;0.22;;;26.00;63.40;;;;;;4190484;28;20127;-65
2022/07/25 05:45:42;;;;;;;0.00;0.00;;;26.00;63.40;;;;;;4191988;28;20406;-65
2022/07/25 05:48:05;;;;;;;0.03;0.03;;;26.00;63.40;;;;;;4191659;28;20063;-65
2022/07/25 05:50:28;;;;;;;0.03;0.03;;;26.00;63.30;;;;;;4194144;28;20044;-65
2022/07/25 05:52:50;;;;;;;0.40;0.40;;;26.00;63.30;;;;;;4194876;28;20767;-65
2022/07/25 05:55:12;;;;;;;0.10;0.10;;;26.00;63.30;;;;;;4194224;28;20049;-64
2022/07/25 05:57:35;;;;;;;0.05;0.05;;;26.00;63.30;;;;;;4194598;28;20055;-65
2022/07/25 05:59:57;;;;;;;4.75;2.78;;;26.00;63.30;;;;;;4194791;28;20117;-65
2022/07/25 06:02:19;;;;;;;0.10;0.10;;;26.00;63.40;;;;;;4194169;28;20529;-65
2022/07/25 06:04:43;;;;;;;0.90;0.30;;;26.00;63.30;;;;;;4180357;28;20410;-64
2022/07/25 06:07:06;;;;;;;0.30;0.30;;;26.00;63.30;;;;;;4191205;28;20052;-65
2022/07/25 06:09:29;;;;;;;0.00;0.00;;;26.00;63.30;;;;;;4176865;28;20060;-65
2022/07/25 06:11:51;;;;;;;0.00;0.00;;;26.00;63.30;;;;;;4186897;28;20044;-64
2022/07/25 06:14:21;;;;;;;0.20;0.20;;;26.00;63.30;;;;;;4193119;28;20518;-64
2022/07/25 06:16:43;;;;;;;0.45;0.45;;;26.00;63.40;;;;;;4178180;28;20044;-65
2022/07/25 06:19:06;;;;;;;0.00;0.00;;;26.00;63.50;;;;;;4177667;28;20448;-64
2022/07/25 06:21:29;;;;;;;0.28;0.28;;;26.00;63.80;;;;;;4178266;28;20107;-64
2022/07/25 06:23:51;;;;;;;0.28;0.28;;;26.10;63.70;;;;;;4177768;28;20059;-64
2022/07/25 06:26:13;;;;;;;0.03;0.03;;;26.00;63.40;;;;;;4176926;28;20056;-63
2022/07/25 06:28:35;;;;;;;0.57;0.57;;;26.00;63.30;;;;;;4182855;28;20057;-64
2022/07/25 06:30:57;;;;;;;0.03;0.03;;;26.10;63.30;;;;;;4202406;28;20062;-64
2022/07/25 06:33:19;;;;;;;0.20;0.20;;;26.10;64.20;;;;;;4176191;28;20460;-64
2022/07/25 06:35:41;;;;;;;0.30;0.30;;;26.10;63.30;;;;;;4177588;28;20048;-64
2022/07/25 06:38:05;;;;;;;0.00;0.00;;;26.10;63.10;;;;;;4177126;28;20037;-64
2022/07/25 06:40:27;;;;;;;1.45;0.80;;;26.10;63.10;;;;;;4177842;28;20056;-64
2022/07/25 06:42:50;;;;;;;0.10;0.10;;;26.10;63.00;;;;;;4176026;28;20044;-64
2022/07/25 06:45:13;;;;;;;0.15;0.15;;;26.00;62.90;;;;;;4177316;28;20064;-64
2022/07/25 06:47:35;;;;;;;1.45;0.35;;;26.10;63.00;;;;;;4177263;28;20507;-64
2022/07/25 06:49:58;;;;;;;0.10;0.10;;;26.10;63.00;;;;;;4174744;28;20507;-64
2022/07/25 06:52:20;;;;;;;0.32;0.32;;;26.10;62.90;;;;;;4176250;28;20472;-64
2022/07/25 06:54:44;;;;;;;0.00;0.00;;;26.10;62.80;;;;;;4177459;28;20049;-65
2022/07/25 06:57:07;;;;;;;0.00;0.00;;;26.10;62.80;;;;;;4177099;28;20049;-64
2022/07/25 06:59:29;;;;;;;0.43;0.43;;;26.20;62.60;;;;;;4176898;28;20056;-64
2022/07/25 07:01:51;;;;;;;0.22;0.22;;;26.20;62.50;;;;;;4177102;28;20079;-64
2022/07/25 07:04:13;;;;;;;0.10;0.10;;;26.30;62.40;;;;;;4173907;28;20505;-64
2022/07/25 07:06:37;;;;;;;0.10;0.10;;;26.30;62.20;;;;;;4175806;28;20187;-64
2022/07/25 07:08:59;;;;;;;0.03;0.03;;;26.40;62.80;;;;;;4177128;28;20098;-64
2022/07/25 07:11:23;;;;;;;0.40;0.40;;;26.40;61.50;;;;;;4175852;28;20051;-64
2022/07/25 07:13:44;;;;;;;0.10;0.10;;;26.50;61.30;;;;;;4176810;28;20049;-64
2022/07/25 07:16:07;;;;;;;0.40;0.40;;;26.60;61.10;;;;;;4177056;28;20052;-63
2022/07/25 07:18:29;;;;;;;0.15;0.15;;;26.60;60.90;;;;;;4175431;28;20408;-64
2022/07/25 07:20:51;;;;;;;0.15;0.15;;;26.60;60.70;;;;;;4174310;28;20048;-64
2022/07/25 07:23:14;;;;;;;0.75;0.73;;;26.70;60.70;;;;;;4176620;28;20052;-69
2022/07/25 07:25:37;;;;;;;0.40;0.40;;;26.70;60.60;;;;;;4175695;28;20037;-64
2022/07/25 07:28:01;;;;;;;0.38;0.38;;;26.70;60.50;;;;;;4176526;28;20818;-64
2022/07/25 07:30:23;;;;;;;0.00;0.00;;;26.70;60.50;;;;;;4176633;28;20140;-64
2022/07/25 07:32:59;;;;;;;1.20;1.20;;;26.70;61.50;;;;;;4176453;28;20041;-64
2022/07/25 07:35:21;;;;;;;0.20;0.20;;;26.70;60.60;;;;;;4176882;28;20076;-64
2022/07/25 07:37:44;;;;;;;0.10;0.10;;;26.70;60.70;;;;;;4176596;28;20091;-64
2022/07/25 07:40:07;;;;;;;0.08;0.08;;;26.70;60.80;;;;;;4178801;28;20465;-64
2022/07/25 07:42:38;;;;;;;0.00;0.00;;;26.70;60.80;;;;;;4184772;28;20098;-64
2022/07/25 07:45:01;;;;;;;0.00;0.00;;;26.70;60.80;;;;;;4190900;28;20101;-64
2022/07/25 07:47:23;;;;;;;0.00;0.00;;;26.70;60.90;;;;;;4189565;28;20056;-64
2022/07/25 07:49:45;;;;;;;0.25;0.25;;;26.70;61.10;;;;;;4189489;28;20458;-64
2022/07/25 07:52:11;;;;;;;1.25;0.47;;;26.70;61.10;;;;;;4192768;28;20071;-64
2022/07/25 07:57:13;;;;;;;0.32;0.32;;;26.60;61.10;;;;;;4192275;28;20048;-64
2022/07/25 07:59:36;;;;;;;0.15;0.15;;;26.70;61.20;;;;;;4174738;28;20502;-64
2022/07/25 08:01:59;;;;;;;0.45;0.45;;;26.70;61.30;;;;;;4183862;28;20075;-64
2022/07/25 08:04:21;;;;;;;0.82;0.82;;;26.70;61.20;;;;;;4192647;28;20045;-64
2022/07/25 08:06:43;;;;;;;0.38;0.38;;;26.70;61.30;;;;;;4192429;28;20483;-64
2022/07/25 08:09:05;;;;;;;0.10;0.10;;;26.70;61.20;;;;;;4188660;28;20600;-64
2022/07/25 08:11:27;;;;;;;0.60;0.60;;;26.80;61.40;;;;;;4192241;28;20431;-64
2022/07/25 08:13:49;;;;;;;0.65;0.65;;;26.80;61.50;;;;;;4192797;28;20044;-64
2022/07/25 08:16:13;;;;;;;0.32;0.32;;;26.70;61.50;;;;;;4192222;28;20064;-64
2022/07/25 08:18:37;;;;;;;0.20;0.20;;;26.80;61.50;;;;;;4180883;28;20124;-64
2022/07/25 08:21:01;;;;;;;0.10;0.10;;;26.80;61.50;;;;;;4175499;28;20049;-64
2022/07/25 08:23:24;;;;;;;0.00;0.00;;;26.80;61.50;;;;;;4176441;28;20214;-64
2022/07/25 08:25:46;;;;;;;0.00;0.00;;;26.80;61.50;;;;;;4175458;28;20061;-64
2022/07/25 08:28:09;;;;;;;0.32;0.32;;;26.70;61.30;;;;;;4187949;28;20051;-64
2022/07/25 08:30:31;;;;;;;0.03;0.03;;;26.80;61.50;;;;;;4192148;28;20056;-64
2022/07/25 08:32:55;;;;;;;0.73;0.73;;;26.70;61.50;;;;;;4182772;28;20515;-65
2022/07/25 08:35:20;;;;;;;0.10;0.10;;;26.70;61.50;;;;;;4175613;28;20111;-65
2022/07/25 08:37:42;;;;;;;3.40;0.47;;;26.70;61.50;;;;;;4190478;28;20048;-65
2022/07/25 08:40:05;;;;;;;0.08;0.08;;;26.70;61.50;;;;;;4190638;28;20048;-65
2022/07/25 08:42:28;;;;;;;0.28;0.28;;;26.70;61.60;;;;;;4192230;28;20049;-64
2022/07/25 08:44:57;;;;;;;5.18;0.68;;;26.70;61.70;;;;;;4192211;28;20128;-65
2022/07/25 08:47:20;;;;;;;0.25;0.25;;;26.70;61.70;;;;;;4175652;28;20041;-65
2022/07/25 08:49:42;;;;;;;0.35;0.35;;;26.70;61.60;;;;;;4175294;28;20106;-65
2022/07/25 08:52:08;;;;;;;0.00;0.00;;;26.70;61.60;;;;;;4175595;28;20060;-65
2022/07/25 08:54:31;;;;;;;0.00;0.00;;;26.70;61.50;;;;;;4190467;28;20133;-65
2022/07/25 08:56:53;;;;;;;0.00;0.00;;;26.70;61.60;;;;;;4191802;28;20119;-65
2022/07/25 08:59:15;;;;;;;0.45;0.45;;;26.70;61.60;;;;;;4190832;28;20094;-65
2022/07/25 09:01:39;;;;;;;0.90;0.73;;;26.70;61.60;;;;;;4191764;28;20044;-65
2022/07/25 09:04:03;;;;;;;0.25;0.25;;;26.70;61.70;;;;;;4191986;28;20052;-64
2022/07/25 09:06:25;;;;;;;0.10;0.10;;;26.70;61.80;;;;;;4191213;28;20059;-64
2022/07/25 09:08:57;;;;;;;0.15;0.15;;;26.70;62.00;;;;;;4192145;28;20059;-65
2022/07/25 09:11:27;;;;;;;0.25;0.25;;;26.70;62.10;;;;;;4191622;28;20056;-65
2022/07/25 09:13:58;;;;;;;2.08;1.25;;;26.60;62.40;;;;;;4191714;28;20086;-67
2022/07/25 09:16:29;;;;;;;0.10;0.10;;;26.60;62.60;;;;;;4190764;28;20045;-67
2022/07/25 09:18:51;;;;;;;2.88;1.65;;;26.60;62.60;;;;;;4182542;28;20290;-66
2022/07/25 09:21:13;;;;;;;3.95;1.23;;;26.60;62.50;;;;;;4191053;28;20091;-66
2022/07/25 09:23:37;;;;;;;0.00;0.00;;;26.60;62.60;;;;;;4191838;28;20047;-66
2022/07/25 09:26:04;;;;;;;0.22;0.22;;;26.60;62.80;;;;;;4192490;28;20050;-66
2022/07/25 09:28:26;;;;;;;0.70;0.70;;;26.60;63.80;;;;;;4195096;28;20052;-66
2022/07/25 09:30:55;;;;;;;0.00;0.00;;;26.60;63.90;;;;;;4194148;28;20556;-66
2022/07/25 09:33:17;;;;;;;0.13;0.13;;;26.60;63.00;;;;;;4187984;28;20387;-66
2022/07/25 09:35:40;;;;;;;0.10;0.10;;;26.60;62.90;;;;;;4194383;28;20056;-66
2022/07/25 09:38:10;;;;;;;0.17;0.17;;;26.60;62.80;;;;;;4194743;28;20048;-65
2022/07/25 09:40:32;;;;;;;5.72;0.77;;;26.60;62.80;;;;;;4211253;28;20044;-68
2022/07/25 09:42:55;;;;;;;0.20;0.20;;;26.60;62.80;;;;;;4206709;28;20408;-67
2022/07/25 09:45:17;;;;;;;1.75;1.65;;;26.60;63.80;;;;;;4178861;28;20053;-66
2022/07/25 09:47:51;;;;;;;1.15;1.15;;;26.70;63.10;;;;;;4178267;28;20140;-66
2022/07/25 09:50:13;;;;;;;7.22;0.90;;;26.70;63.10;;;;;;4178315;28;20049;-66
2022/07/25 09:52:36;;;;;;;1.63;0.20;;;26.70;63.30;;;;;;4178534;28;20099;-66
2022/07/25 09:55:01;;;;;;;0.10;0.10;;;26.70;63.20;;;;;;4172620;28;20552;-66
2022/07/25 09:57:24;;;;;;;0.38;0.38;;;26.70;62.90;;;;;;4178376;28;20073;-66
2022/07/25 09:59:48;;;;;;;0.90;0.90;;;26.80;62.80;;;;;;4178217;28;20051;-66
2022/07/25 10:02:17;;;;;;;0.30;0.30;;;26.80;62.70;;;;;;4177563;28;20071;-66
2022/07/25 10:04:46;;;;;;;1.55;1.45;;;26.90;62.40;;;;;;4178938;28;20175;-66
2022/07/25 10:07:11;;;;;;;0.28;0.28;;;26.90;62.10;;;;;;4176210;28;20041;-66
2022/07/25 10:09:33;;;;;;;1.63;1.55;;;26.90;61.90;;;;;;4193195;28;20048;-66
2022/07/25 10:12:06;;;;;;;0.57;0.57;;;27.00;61.70;;;;;;4177129;28;20055;-66
2022/07/25 10:14:28;;;;;;;0.30;0.30;;;27.00;61.50;;;;;;4194254;28;20059;-67
2022/07/25 10:16:51;;;;;;;0.80;0.80;;;27.00;61.30;;;;;;4186130;28;20056;-67
2022/07/25 10:19:13;;;;;;;0.00;0.00;;;27.10;61.20;;;;;;4193438;28;20051;-67
2022/07/25 10:21:35;;;;;;;1.25;0.47;;;27.10;61.00;;;;;;4194308;28;20044;-66
2022/07/25 10:23:59;;;;;;;0.00;0.00;;;27.10;60.80;;;;;;4193911;28;20059;-66
2022/07/25 10:26:24;;;;;;;0.00;0.00;;;27.10;60.50;;;;;;4177867;28;20511;-66
2022/07/25 10:28:48;;;;;;;0.03;0.03;;;27.10;60.10;;;;;;4192889;28;20051;-65
2022/07/25 10:31:21;;;;;;;0.80;0.73;;;27.10;59.70;;;;;;4193253;28;20132;-66
2022/07/25 10:33:48;;;;;;;0.00;0.00;;;27.20;59.40;;;;;;4178708;28;20052;-66
2022/07/25 10:36:11;;;;;;;0.00;0.00;;;27.20;59.30;;;;;;4174329;28;20094;-66
2022/07/25 10:38:33;;;;;;;0.00;0.00;;;27.20;59.00;;;;;;4192162;28;20053;-66
2022/07/25 10:41:00;;;;;;;0.22;0.22;;;27.20;58.90;;;;;;4176792;28;20210;-65
2022/07/25 10:43:24;;;;;;;0.00;0.00;;;27.20;59.00;;;;;;4192865;28;20134;-66
2022/07/25 10:45:51;;;;;;;0.00;0.00;;;27.20;58.70;;;;;;4193973;28;20122;-66
2022/07/25 10:48:21;;;;;;;0.00;0.00;;;27.20;58.70;;;;;;4191797;28;20619;-66
2022/07/25 10:50:50;;;;;;;0.00;0.00;;;27.10;58.60;;;;;;4193551;28;20056;-67
2022/07/25 10:53:30;;;;;;;0.00;0.00;;;27.20;58.70;;;;;;4187407;28;20051;-66
2022/07/25 10:55:57;;;;;;;0.00;0.00;;;27.10;58.60;;;;;;4193408;28;20131;-67
2022/07/25 10:58:27;;;;;;;0.00;0.00;;;27.20;58.70;;;;;;4193974;28;20117;-67
2022/07/25 11:00:51;;;;;;;0.00;0.00;;;27.10;58.80;;;;;;4192770;28;20059;-67
2022/07/25 11:03:14;;;;;;;0.00;0.00;;;27.20;58.80;;;;;;4176816;28;20381;-67
2022/07/25 11:05:46;;;;;;;0.00;0.00;;;27.10;58.90;;;;;;4176976;28;20083;-67
2022/07/25 11:08:09;;;;;;;0.00;0.00;;;27.10;59.00;;;;;;4188958;28;20462;-67
2022/07/25 11:10:52;;;;;;;0.00;0.00;;;27.10;59.20;;;;;;4175507;28;20057;-66
2022/07/25 11:13:14;;;;;;;0.22;0.22;;;27.10;59.30;;;;;;4175324;28;20067;-66
2022/07/25 11:15:37;;;;;;;0.00;0.00;;;27.00;59.20;;;;;;4176527;28;20049;-66
2022/07/25 11:17:59;;;;;;;0.00;0.00;;;27.00;59.30;;;;;;4186434;28;20393;-66
2022/07/25 11:20:21;;;;;;;0.35;0.35;;;27.00;59.70;;;;;;4191088;28;20490;-66
2022/07/25 11:22:50;;;;;;;0.20;0.20;;;27.00;60.10;;;;;;4193062;28;20055;-66
2022/07/25 11:25:14;;;;;;;1.23;0.63;;;27.00;60.10;;;;;;4181478;28;20057;-66
2022/07/25 11:27:36;;;;;;;0.00;0.00;;;27.00;60.30;;;;;;4175934;28;20135;-66
2022/07/25 11:30:07;;;;;;;0.00;0.00;;;27.00;60.30;;;;;;4176754;28;20064;-66
2022/07/25 11:32:38;;;;;;;0.00;0.00;;;27.00;60.40;;;;;;4174695;28;20780;-66
2022/07/25 11:35:01;;;;;;;0.00;0.00;;;27.00;60.60;;;;;;4176815;28;20049;-65
2022/07/25 11:37:23;;;;;;;0.00;0.00;;;27.00;60.60;;;;;;4175671;28;20182;-65
2022/07/25 11:39:48;;;;;;;0.00;0.00;;;27.00;60.70;;;;;;4190597;28;20067;-65
2022/07/25 11:42:15;;;;;;;0.00;0.00;;;27.00;60.90;;;;;;4192173;28;20055;-66
2022/07/25 11:44:38;;;;;;;0.70;0.65;;;27.00;61.20;;;;;;4176206;28;20481;-66
2022/07/25 11:47:07;;;;;;;6.32;0.55;;;27.00;62.20;;;;;;4175399;28;20504;-67
2022/07/25 11:49:30;;;;;;;0.00;0.00;;;27.00;61.40;;;;;;4176487;28;20044;-67
2022/07/25 11:51:52;;;;;;;0.00;0.00;;;27.00;61.50;;;;;;4186485;28;20075;-66
2022/07/25 11:54:15;;;;;;;0.00;0.00;;;27.00;61.70;;;;;;4192370;28;20123;-67
2022/07/25 11:56:40;;;;;;;0.15;0.15;;;27.00;61.80;;;;;;4191290;28;20052;-67
2022/07/25 11:59:05;;;;;;;0.30;0.30;;;27.10;61.90;;;;;;4192480;28;20052;-67
2022/07/25 12:01:35;;;;;;;0.00;0.00;;;27.00;61.90;;;;;;4191976;28;20055;-66
2022/07/25 12:04:07;;;;;;;0.00;0.00;;;27.00;61.90;;;;;;4192316;28;20072;-66
2022/07/25 12:06:29;;;;;;;0.00;0.00;;;27.00;62.00;;;;;;4192193;28;20055;-66
2022/07/25 12:08:55;;;;;;;0.00;0.00;;;27.00;62.10;;;;;;4191557;28;20047;-65
2022/07/25 12:11:21;;;;;;;0.20;0.20;;;27.10;62.20;;;;;;4192571;28;20055;-67
2022/07/25 12:13:43;;;;;;;0.00;0.00;;;27.10;62.30;;;;;;4192313;28;20554;-66
2022/07/25 12:16:08;;;;;;;0.52;0.52;;;27.10;62.40;;;;;;4192311;28;20043;-67
2022/07/25 12:18:29;;;;;;;0.00;0.00;;;27.10;62.30;;;;;;4192428;28;20460;-68
2022/07/25 12:20:52;;;;;;;0.30;0.30;;;27.10;62.30;;;;;;4192318;28;20055;-67
2022/07/25 12:23:14;;;;;;;0.00;0.00;;;27.00;62.20;;;;;;4192572;28;20498;-68
2022/07/25 12:25:38;;;;;;;0.00;0.00;;;27.00;62.20;;;;;;4192330;28;20046;-68
2022/07/25 12:28:01;;;;;;;0.00;0.00;;;27.10;62.10;;;;;;4176045;28;20056;-67
2022/07/25 12:30:23;;;;;;;0.10;0.10;;;27.00;62.10;;;;;;4173965;28;20094;-67